Flugplatz Hundheim (UL)

Hier findest Du alle Informationen zum Flugplatz Hundheim (UL).

Informationen für Piloten zum Flugplatz Hundheim

Hier findest Du alle relevanten Informationen, die Du als Pilot benötigst, um Hundheim anzufliegen.

Flugplatz: Hundheim ICAO-Code: UL Flugplatz
Frequenz Turm: 120,975 Mhz GAFOR Gebiet: -
Frequenz Ground: 120,975 Mhz Mogas: nein
Platzrunde: SO 2200 ft Landegebühr: -
Platzhöhe: Sunrise: 05:31 Uhr UTC
Pisten: 04/22 - 400 m x 30 m, GRAS Sunset: 17:07 Uhr UTC

Mitglieder, die in Hundheim fliegen

Flugwetter am Flugplatz Hundheim

Die METAR Information stammen aus EDFH (14.32 km entfernt).

METAR Code:
2020/09/30 14:50
EDFH 301450Z 16010KT 9999 SCT010 BKN026 15/13 Q1013

Flugschulen am Flugplatz Hundheim

Am Flugplatz Hundheim gibt es leider keine Flugschule.

Benachbarte Flugplätze und Flugschulen

Es gibt 17 weitere Flugplätze in einem Umkreis von 50 km um den Flugplatz Hundheim.

Jetzt anmelden

Passwort vergessen

Umfrage Archiv

Wären Rettungsgeräte keine Pflicht mehr, würdet Ihr Euer UL trotzdem mit einem ausstatten?

Ja
85.8 %
Nein
14.2 %
Stimmen: 331 | Diskussion
Anzeige: Roland Aircraft
Statistik Alle Mitglieder

Aktuell sind 41 Besucher online.

Anzeige: VFR Sprechfunk Simulator


Anzeige: Pocket FMS